createdAt,value
2023-07-07T00:03:24.939Z,2.20
2023-07-07T00:07:30.607Z,2.53
2023-07-07T00:11:36.251Z,2.70
2023-07-07T00:15:45.420Z,2.67
2023-07-07T00:19:50.941Z,2.70
2023-07-07T00:23:57.637Z,2.50
2023-07-07T00:32:08.774Z,3.10
2023-07-07T00:36:14.250Z,2.83
2023-07-07T00:40:20.343Z,2.30
2023-07-07T01:18:04.393Z,2.75
2023-07-07T01:22:56.573Z,2.70
2023-07-07T01:27:31.363Z,2.80
2023-07-07T01:31:44.352Z,3.13
2023-07-07T01:35:50.046Z,2.95
2023-07-07T01:39:56.061Z,2.97
2023-07-07T01:44:39.332Z,3.10
2023-07-07T01:49:08.113Z,3.13
2023-07-07T01:53:23.288Z,3.10
2023-07-07T01:57:29.613Z,2.80
2023-07-07T02:01:36.124Z,2.90
2023-07-07T02:05:41.692Z,2.67
2023-07-07T02:09:47.152Z,3.00
2023-07-07T02:13:52.659Z,3.00
2023-07-07T02:17:58.421Z,3.50
2023-07-07T02:22:04.191Z,3.05
2023-07-07T02:26:10.278Z,3.05
2023-07-07T02:30:16.120Z,2.90
2023-07-07T02:34:21.602Z,2.97
2023-07-07T02:38:27.337Z,3.17
2023-07-07T02:42:32.812Z,2.95
2023-07-07T02:46:38.389Z,3.00
2023-07-07T02:50:43.918Z,3.20
2023-07-07T02:54:49.426Z,2.70
2023-07-07T02:58:54.932Z,2.75
2023-07-07T03:03:00.459Z,2.88
2023-07-07T03:07:06.328Z,3.00
2023-07-07T03:11:15.722Z,2.87
2023-07-07T03:15:21.910Z,2.60
2023-07-07T03:19:27.445Z,2.47
2023-07-07T03:23:32.978Z,3.00
2023-07-07T03:27:38.504Z,2.57
2023-07-07T03:31:44.030Z,2.40
2023-07-07T03:35:52.090Z,2.83
2023-07-07T03:39:57.634Z,2.27
2023-07-07T03:44:03.150Z,2.77
2023-07-07T03:48:08.616Z,2.80
2023-07-07T03:52:14.165Z,3.03
2023-07-07T03:56:21.299Z,3.00
2023-07-07T04:00:27.083Z,2.93
2023-07-07T04:04:32.931Z,3.23
2023-07-07T04:08:38.546Z,2.93
2023-07-07T04:12:44.027Z,2.60
2023-07-07T04:16:49.659Z,2.13
2023-07-07T04:20:55.872Z,2.63
2023-07-07T04:25:12.925Z,2.43
2023-07-07T04:29:18.618Z,3.10
2023-07-07T04:33:26.181Z,3.73
2023-07-07T04:37:33.023Z,3.60
2023-07-07T04:41:38.646Z,4.20
2023-07-07T04:45:46.902Z,4.53
2023-07-07T04:49:52.496Z,4.00
2023-07-07T04:53:57.997Z,3.73
2023-07-07T04:58:03.462Z,3.90
2023-07-07T05:02:08.930Z,4.40
2023-07-07T05:06:14.961Z,4.60
2023-07-07T05:10:20.463Z,3.93
2023-07-07T05:14:26.047Z,4.30
2023-07-07T05:18:32.310Z,4.03
2023-07-07T05:22:37.911Z,4.20
2023-07-07T05:26:45.549Z,3.80
2023-07-07T05:30:51.481Z,4.00
2023-07-07T05:34:57.035Z,4.03
2023-07-07T05:39:02.592Z,3.07
2023-07-07T05:43:08.065Z,3.57
2023-07-07T05:47:13.644Z,3.47
2023-07-07T05:51:20.679Z,3.17
2023-07-07T05:55:35.891Z,3.03
2023-07-07T05:59:41.367Z,3.17
2023-07-07T06:03:47.237Z,3.37
2023-07-07T06:07:54.688Z,2.87
2023-07-07T06:12:00.854Z,3.20
2023-07-07T06:16:07.091Z,2.37
2023-07-07T06:20:14.519Z,2.50
2023-07-07T06:24:20.000Z,2.63
2023-07-07T06:40:41.664Z,2.13
2023-07-07T06:44:47.301Z,2.40
2023-07-07T06:48:52.892Z,2.47
2023-07-07T06:52:58.404Z,2.00
2023-07-07T06:57:04.146Z,2.60
2023-07-07T07:01:14.226Z,2.50
2023-07-07T07:05:20.053Z,2.23
2023-07-07T07:09:25.485Z,2.10
2023-07-07T07:13:30.962Z,2.23
2023-07-07T07:17:36.837Z,2.00
2023-07-07T07:21:42.533Z,2.30
2023-07-07T07:25:49.953Z,2.20
2023-07-07T07:29:55.420Z,2.20
2023-07-07T07:34:26.611Z,2.37
2023-07-07T07:38:32.140Z,2.03
2023-07-07T07:42:37.607Z,2.20
2023-07-07T07:46:45.766Z,2.30
2023-07-07T07:50:51.284Z,2.20
2023-07-07T07:54:56.777Z,2.60
2023-07-07T07:59:06.373Z,2.30
2023-07-07T08:03:13.591Z,2.27
2023-07-07T08:07:19.165Z,1.80
2023-07-07T08:11:47.618Z,1.97
2023-07-07T08:15:53.080Z,2.30
2023-07-07T08:19:59.255Z,2.13
2023-07-07T08:24:07.005Z,2.20
2023-07-07T08:28:12.730Z,1.90
2023-07-07T08:32:22.909Z,1.80
2023-07-07T08:36:28.489Z,1.83
2023-07-07T08:40:53.356Z,1.97
2023-07-07T08:45:02.096Z,2.17
2023-07-07T08:49:18.721Z,1.90
2023-07-07T08:53:43.054Z,2.10
2023-07-07T08:58:00.594Z,2.17
2023-07-07T09:02:46.102Z,2.30
2023-07-07T09:07:28.289Z,2.40
2023-07-07T09:12:01.754Z,1.97
2023-07-07T09:16:15.491Z,1.90
2023-07-07T09:20:23.987Z,2.20
2023-07-07T09:25:21.355Z,2.37
2023-07-07T09:29:31.616Z,2.07
2023-07-07T09:33:37.157Z,1.90
2023-07-07T09:38:03.957Z,1.87
2023-07-07T09:42:44.045Z,2.20
2023-07-07T09:47:24.317Z,2.17
2023-07-07T09:51:56.682Z,2.10
2023-07-07T09:56:04.043Z,1.83
2023-07-07T10:00:22.619Z,1.80
2023-07-07T10:04:33.070Z,1.83
2023-07-07T10:08:38.679Z,2.00
2023-07-07T10:12:46.409Z,2.40
2023-07-07T10:17:09.930Z,2.13
2023-07-07T10:21:16.441Z,1.87
2023-07-07T10:25:22.478Z,1.80
2023-07-07T10:29:41.675Z,1.60
2023-07-07T10:33:52.183Z,1.87
2023-07-07T10:38:04.286Z,1.60
2023-07-07T10:42:10.831Z,2.00
2023-07-07T10:46:16.769Z,1.57
2023-07-07T10:50:26.682Z,2.03
2023-07-07T10:55:03.083Z,1.87
2023-07-07T10:59:44.339Z,1.90
2023-07-07T11:04:28.124Z,1.77
2023-07-07T11:09:13.321Z,1.80
2023-07-07T11:13:33.726Z,1.90
2023-07-07T11:18:12.823Z,2.17
2023-07-07T11:22:51.657Z,1.97
2023-07-07T11:27:27.940Z,2.00
2023-07-07T11:32:09.517Z,2.20
2023-07-07T11:36:48.593Z,1.90
2023-07-07T11:41:37.912Z,2.03
2023-07-07T11:46:36.625Z,1.70
2023-07-07T11:51:00.169Z,2.03
2023-07-07T11:55:54.733Z,2.10
2023-07-07T12:00:35.698Z,2.30
2023-07-07T12:04:44.589Z,2.30
2023-07-07T12:09:04.317Z,2.23
2023-07-07T12:13:15.804Z,2.10
2023-07-07T12:17:27.883Z,2.27
2023-07-07T12:21:38.129Z,2.40
2023-07-07T12:25:43.856Z,1.93
2023-07-07T12:29:51.709Z,2.43
2023-07-07T12:33:57.382Z,1.90
2023-07-07T12:38:28.074Z,2.20
2023-07-07T12:42:34.534Z,2.63
2023-07-07T12:46:40.280Z,2.20
2023-07-07T12:50:46.681Z,2.93
2023-07-07T12:54:55.083Z,2.20
2023-07-07T12:59:02.838Z,2.20
2023-07-07T13:03:11.148Z,2.00
2023-07-07T13:07:28.215Z,2.67
2023-07-07T13:11:36.507Z,2.13
2023-07-07T13:15:42.067Z,2.13
2023-07-07T13:19:52.242Z,2.30
2023-07-07T13:23:58.181Z,1.83
2023-07-07T13:28:11.599Z,2.10
2023-07-07T13:32:34.714Z,2.40
2023-07-07T13:36:40.234Z,2.40
2023-07-07T13:40:47.152Z,2.47
2023-07-07T13:44:58.923Z,2.30
2023-07-07T13:49:13.979Z,2.20
2023-07-07T13:53:20.765Z,2.07
2023-07-07T13:57:34.574Z,2.00
2023-07-07T14:01:40.600Z,2.30
2023-07-07T14:05:49.912Z,1.70
2023-07-07T14:09:55.434Z,2.20
2023-07-07T14:14:02.326Z,2.13
2023-07-07T14:18:12.355Z,1.87
2023-07-07T14:22:18.379Z,2.30
2023-07-07T14:26:24.412Z,1.90
2023-07-07T14:30:29.924Z,1.87
2023-07-07T14:34:52.397Z,2.33
2023-07-07T14:39:00.997Z,2.43
2023-07-07T14:43:25.077Z,2.50
2023-07-07T14:47:36.535Z,2.17
2023-07-07T14:51:51.932Z,2.37
2023-07-07T14:55:57.534Z,2.17
2023-07-07T15:00:38.662Z,2.00
2023-07-07T15:04:46.354Z,2.20
2023-07-07T15:08:53.670Z,1.90
2023-07-07T15:12:59.140Z,2.27
2023-07-07T15:17:04.947Z,2.00
2023-07-07T15:21:23.530Z,2.67
2023-07-07T15:25:29.242Z,2.30
2023-07-07T15:29:34.871Z,2.03
2023-07-07T15:33:40.361Z,1.90
2023-07-07T15:37:49.081Z,1.50
2023-07-07T15:41:54.578Z,3.33
2023-07-07T15:46:00.333Z,2.10
2023-07-07T15:50:20.057Z,1.70
2023-07-07T15:54:25.573Z,2.07
2023-07-07T15:58:31.060Z,2.33
2023-07-07T16:02:36.540Z,2.00
2023-07-07T16:06:42.181Z,2.10
2023-07-07T16:10:47.675Z,2.30
2023-07-07T16:14:53.147Z,2.50
2023-07-07T16:18:58.627Z,1.80
2023-07-07T16:23:04.181Z,2.10
2023-07-07T16:27:18.942Z,1.90
2023-07-07T16:31:27.725Z,1.97
2023-07-07T16:35:33.334Z,1.90
2023-07-07T16:39:39.153Z,2.07
2023-07-07T16:43:44.709Z,2.30
2023-07-07T16:47:50.783Z,1.70
2023-07-07T16:51:56.293Z,2.60
2023-07-07T16:56:02.765Z,2.03
2023-07-07T17:00:31.975Z,1.97
2023-07-07T17:04:37.439Z,2.30
2023-07-07T17:08:42.954Z,2.53
2023-07-07T17:12:48.893Z,1.93
2023-07-07T17:16:54.429Z,2.30
2023-07-07T17:21:00.080Z,1.90
2023-07-07T17:25:06.093Z,2.00
2023-07-07T17:29:16.380Z,2.20
2023-07-07T17:33:21.875Z,2.20
2023-07-07T17:37:27.705Z,2.47
2023-07-07T17:41:33.166Z,2.13
2023-07-07T17:45:38.613Z,2.10
2023-07-07T17:49:44.078Z,2.67
2023-07-07T17:53:49.655Z,2.40
2023-07-07T17:57:55.639Z,2.30
2023-07-07T18:02:01.194Z,2.37
2023-07-07T18:06:27.803Z,2.13
2023-07-07T18:10:35.311Z,1.70
2023-07-07T18:14:40.770Z,2.10
2023-07-07T18:19:01.195Z,2.37
2023-07-07T18:23:13.264Z,2.47
2023-07-07T18:27:18.775Z,2.50
2023-07-07T18:31:35.416Z,2.30
2023-07-07T18:35:41.037Z,2.63
2023-07-07T18:39:48.863Z,2.63
2023-07-07T18:43:55.646Z,2.57
2023-07-07T18:48:01.654Z,2.57
2023-07-07T18:52:09.195Z,2.60
2023-07-07T18:56:34.214Z,2.70
2023-07-07T19:00:42.814Z,3.17
2023-07-07T19:04:48.284Z,2.67
2023-07-07T19:08:53.966Z,2.67
2023-07-07T19:13:22.375Z,2.60
2023-07-07T19:17:28.157Z,2.47
2023-07-07T19:21:33.852Z,3.10
2023-07-07T19:25:39.405Z,2.77
2023-07-07T19:29:44.987Z,3.27
2023-07-07T19:33:51.003Z,2.53
2023-07-07T19:37:56.434Z,2.67
2023-07-07T19:42:01.963Z,2.63
2023-07-07T19:46:32.165Z,3.07
2023-07-07T19:50:39.566Z,2.93
2023-07-07T19:54:48.446Z,3.13
2023-07-07T19:58:58.678Z,2.50
2023-07-07T20:03:04.538Z,2.87
2023-07-07T20:07:13.861Z,2.77
2023-07-07T20:11:26.620Z,2.60
2023-07-07T20:15:32.291Z,2.93
2023-07-07T20:19:37.811Z,3.17
2023-07-07T20:23:43.877Z,3.03
2023-07-07T20:27:50.640Z,2.90
2023-07-07T20:31:56.512Z,2.93
2023-07-07T20:36:02.188Z,2.87
2023-07-07T20:40:27.875Z,3.13
2023-07-07T20:44:33.353Z,3.00
2023-07-07T20:48:38.953Z,3.00
2023-07-07T20:52:44.769Z,3.27
2023-07-07T20:56:50.402Z,3.10
2023-07-07T21:00:56.636Z,3.23
2023-07-07T21:05:02.999Z,3.30
2023-07-07T21:09:13.753Z,3.80
2023-07-07T21:13:23.355Z,3.40
2023-07-07T21:17:29.141Z,5.33
2023-07-07T21:21:36.173Z,4.23
2023-07-07T21:25:48.123Z,4.00
2023-07-07T21:29:53.610Z,3.80
2023-07-07T21:33:59.160Z,5.00
2023-07-07T21:38:12.666Z,4.33
2023-07-07T21:42:18.141Z,4.13
2023-07-07T22:15:04.144Z,3.95
2023-07-07T22:19:13.105Z,4.17
2023-07-07T22:23:18.783Z,3.80
2023-07-07T22:27:24.265Z,3.93
2023-07-07T22:31:29.750Z,4.00
2023-07-07T23:29:13.652Z,6.00
2023-07-07T23:33:19.993Z,5.40
2023-07-07T23:37:31.063Z,4.90
2023-07-07T23:41:36.586Z,4.50
2023-07-07T23:45:43.451Z,4.90
2023-07-07T23:49:48.907Z,5.80
2023-07-07T23:53:54.407Z,6.10
2023-07-07T23:58:01.076Z,5.70
